Terminal Aerodrome Forecast
Issued by NWS Huntsville, AL

Home | Current Version | Previous Version | Text Only | Print | Product List | Glossary On
Versions: 1 2 3 4 5 6 7 8 9 10 11 12 13 14 15 16 17 18 19 20 21 22 23 24 25 26 27 28 29 30 31 32 33 34 35 36 37 38 39 40
000
FTUS44 KHUN 191136
TAFMSL
TAF
KMSL 191136Z 1912/2012 17008KT P6SM -SHRA OVC009
     FM191400 20010KT P6SM OVC030
     FM191800 22012G18KT P6SM OVC040
     FM191900 23012G18KT 5SM SHRA VCTS BKN025CB
     FM192300 21009KT P6SM BKN040
     FM200200 18007KT P6SM BKN060
     FM200700 19010G15KT 5SM SHRA BKN025
     FM201000 20010G15KT P6SM BKN020=

USA.gov is the U.S. government's official web portal to all federal, state and local government web resources and services.